Tiempo atmosférico en la estación meteorológica de El Campillo, Huelva (415 m.)

Fecha
DESCASC
Temp. máxima en grados centígrados (hora)
DESCASC
Temp. mínima en grados centígrados (hora)
DESCASC
Temp. media en grados centígrados
DESCASC
Racha de viento máxima en m/sg (hora)
DESCASC
Velocidad máxima media en intervalos de 10 minutos(hora)
DESCASC
Precipitaciones diarias en mm
DESCASC
Precipitaciones de 00:00 a 06:00 en mm
DESCASC
Precipitaciones de 06:00 a 12:00 en mm
DESCASC
Precipitaciones de 12:00 a 18:00 en mm
DESCASC
Precipitaciones de 18:00 a 24:00 en mm
DESCASC
22-10-2017 25.6 (17:10) 14.4 (06:20) 20 7.78 (01:30) 5.83 (01:40) 0 0 0 0 0
21-10-2017 24.7 (16:20) 15.8 (08:00) 20.3 8.89 (23:30) 6.11 (23:30) 0 0 0 0 0
20-10-2017 22.3 (17:10) 14.5 (01:30) 18.4 5.56 (17:10) 3.61 (22:40) 0 0 0 0 0
19-10-2017 19.9 (17:30) 13.4 (00:00) 16.6 8.33 (16:20) 4.72 (16:20) 0.6 0.6 0 0 0
18-10-2017 18.3 (17:50) 13.3 (00:00) 15.8 7.5 (17:20) 3.33 (18:10) 7 1.8 2 1.8 1.4
17-10-2017 21.1 (17:00) 15.8 (00:00) 18.5 11.67 (11:40) 5 (18:40) 45.4 0 41.8 3.6 0
16-10-2017 26.7 (15:50) 16.6 (00:00) 21.7 9.72 (15:20) 5.83 (15:20) 0 0 0 0 0
15-10-2017 32 (15:50) 21.3 (00:00) 26.6 10.28 (16:20) 5.56 (18:20) 0 0 0 0 0
14-10-2017 32.8 (15:20) 20.3 (00:00) 26.5 6.11 (15:20) 4.17 (17:30) 0 0 0 0 0
13-10-2017 31.9 (16:50) 18.2 (00:00) 25.1 6.67 (16:00) 4.17 (16:00) 0 0 0 0 0
12-10-2017 31.3 (17:00) 20.1 (00:00) 25.7 9.44 (15:20) 6.39 (17:20) 0 0 0 0 0
11-10-2017 32.2 (16:40) 19.7 (00:00) 26 5.56 (12:40) 3.61 (09:30) 0 0 0 0 0
10-10-2017 29.8 (16:30) 17.9 (00:00) 23.8 6.94 (16:00) 3.89 (18:10) 0 0 0 0 0
09-10-2017 31.3 (16:40) 19 (00:00) 25.1 8.06 (19:30) 5 (19:30) 0 0 0 0 0
08-10-2017 31.6 (17:30) 17.3 (00:00) 24.4 6.94 (20:20) 4.17 (20:20) 0 0 0 0 0
07-10-2017 31.3 (15:50) 18.8 (00:00) 25 8.33 (16:00) 5.28 (17:20) 0 0 0 0 0
06-10-2017 33.3 (17:00) 18.6 (00:00) 25.9 7.78 (18:30) 5.28 (18:30) 0 0 0 0 0
05-10-2017 31.4 (17:50) 18.7 (00:00) 25.1 6.67 (11:40) 3.61 (15:10) 0 0 0 0 0
04-10-2017 32 (17:20) 17.7 (00:00) 24.9 11.39 (15:00) 3.89 (19:30) 0 0 0 0 0
03-10-2017 32.1 (18:00) 18.2 (00:00) 25.1 6.39 (11:20) 3.33 (07:40) 0 0 0 0 0
02-10-2017 32.1 (17:10) 20.7 (00:00) 26.4 7.78 (13:50) 3.89 (12:20) 0 0 0 0 0
01-10-2017 32.1 (17:20) 18.8 (00:00) 25.4 5.83 (19:20) 4.17 (02:20) 0 0 0 0 0
30-09-2017 30.3 (16:50) 16.5 (00:00) 23.4 7.22 (18:30) 5 (19:50) 0 0 0 0 0
29-09-2017 31 (17:40) 17.3 (00:00) 24.1 8.61 (19:20) 5 (19:10) 0 0 0 0 0
28-09-2017 29.3 (17:40) 18.5 (00:00) 23.9 6.94 (15:40) 3.33 (14:10) 0 0 0 0 0
27-09-2017 23.4 (17:00) 14.9 (00:00) 19.1 6.67 (12:50) 3.61 (12:00) 0 0 0 0 0
26-09-2017 30.3 (17:10) 14.6 (00:00) 22.4 8.33 (19:10) 5.28 (19:00) 0 0 0 0 0
25-09-2017 30.3 (16:20) 17.5 (00:00) 23.9 8.89 (17:10) 5.28 (23:40) 0 0 0 0 0
24-09-2017 30.4 (18:10) 15.8 (00:00) 23.1 6.94 (20:10) 4.17 (23:59) 0 0 0 0 0
23-09-2017 30.4 (18:50) 15.6 (00:00) 23 7.5 (19:30) 5 (19:30) 0 0 0 0 0

Gráficas

Temp. máximas Temp. mínimas Temp. medias Precipitaciones Rachas de viento máximas Velocidades máximas media en intervalos de 10 minutos

Datos horarios

Fecha y hora oficial Temperatura (ºC) Velocidad del viento (km/h) Dirección del viento Racha (km/h) Dirección de racha Precipitación (mm) Presión (hPa) Tendencia (hPa) Humedad (%)
2017-10-22 23:00:00 18.1 5 Nordeste 6 Nordeste 0 -- -- 50
2017-10-22 22:00:00 17.2 0 Calma 6 Sudoeste 0 -- -- 53
2017-10-22 21:00:00 18.9 3 Sur 9 Sur 0 -- -- 52
2017-10-22 20:00:00 20.7 4 Sur 7 Sur 0 -- -- 50
2017-10-22 19:00:00 24.3 3 Sudoeste 14 Oeste 0 -- -- 45
2017-10-22 18:00:00 25.1 6 Noroeste 11 Noroeste 0 -- -- 43
2017-10-22 17:00:00 25.5 4 Oeste 10 Sudoeste 0 -- -- 40
2017-10-22 16:00:00 24.5 7 Nordeste 13 Sur 0 -- -- 39
2017-10-22 15:00:00 23.7 4 Norte 11 Sudoeste 0 -- -- 44
2017-10-22 14:00:00 23.3 6 Sur 12 Sudeste 0 -- -- 46
2017-10-22 13:00:00 22.3 5 Oeste 13 Sudoeste 0 -- -- 48
2017-10-22 12:00:00 21.6 6 Sudoeste 10 Sur 0 -- -- 48
2017-10-22 11:00:00 19.7 3 Nordeste 8 Nordeste 0 -- -- 55
2017-10-22 10:00:00 16.4 7 Nordeste 11 Nordeste 0 -- -- 61
2017-10-22 09:00:00 15.3 8 Nordeste 13 Nordeste 0 -- -- 61
2017-10-22 08:00:00 14.7 8 Nordeste 13 Nordeste 0 -- -- 61
2017-10-22 07:00:00 15 9 Nordeste 14 Nordeste 0 -- -- 61
2017-10-22 06:00:00 14.9 4 Norte 15 Norte 0 -- -- 61
2017-10-22 05:00:00 15.3 9 Nordeste 23 Nordeste 0 -- -- 59
2017-10-22 04:00:00 15.8 17 Norte 24 Norte 0 -- -- 57
2017-10-22 03:00:00 15.6 16 Norte 22 Nordeste 0 -- -- 61
2017-10-22 02:00:00 16.3 16 Norte 28 Norte 0 -- -- 63
2017-10-22 01:00:00 16.4 18 Norte 28 Norte 0 -- -- 69
2017-10-22 00:00:00 16.9 20 Norte 32 Norte 0 -- -- 72
2017-10-21 23:00:00 17.3 18 Norte 24 Norte 0 -- -- 75
2017-10-21 22:00:00 18.4 17 Norte 26 Noroeste 0 -- -- 73
2017-10-21 21:00:00 19.1 16 Norte 23 Noroeste 0 -- -- 71
2017-10-21 20:00:00 20.4 17 Norte 22 Noroeste 0 -- -- 65
2017-10-21 19:00:00 21.8 15 Norte 24 Norte 0 -- -- 59
2017-10-21 18:00:00 23 12 Noroeste 21 Noroeste 0 -- -- 57
2017-10-21 17:00:00 24 11 Norte 21 Norte 0 -- -- 55
2017-10-21 16:00:00 23.8 6 Noroeste 19 Noroeste 0 -- -- 60
2017-10-21 15:00:00 24.4 5 Oeste 15 Oeste 0 -- -- 60
2017-10-21 14:00:00 23 9 Noroeste 15 Noroeste 0 -- -- 67
2017-10-21 13:00:00 22.4 3 Oeste 13 Norte 0 -- -- 67
2017-10-21 12:00:00 21.2 8 Noroeste 18 Norte 0 -- -- 74
2017-10-21 11:00:00 18.9 13 Norte 18 Norte 0 -- -- 84
2017-10-21 10:00:00 17.8 4 Norte 9 Norte 0 -- -- 89
2017-10-21 09:00:00 16.6 5 Nordeste 10 Nordeste 0 -- -- 92
2017-10-21 08:00:00 15.8 5 Norte 10 Norte 0 -- -- 94
2017-10-21 07:00:00 16.1 5 Norte 9 Norte 0 -- -- 93
2017-10-21 06:00:00 16.3 4 Norte 11 Nordeste 0 -- -- 93
2017-10-21 05:00:00 16.2 6 Norte 10 Norte 0 -- -- 95
2017-10-21 04:00:00 16.6 6 Noroeste 9 Norte 0 -- -- 95
2017-10-21 03:00:00 16.8 4 Norte 6 Norte 0 -- -- 95
2017-10-21 02:00:00 16.9 4 Norte 6 Norte 0 -- -- 94
2017-10-21 01:00:00 17.3 4 Norte 13 Norte 0 -- -- 92
2017-10-21 00:00:00 17.7 7 Norte 15 Norte 0 -- -- 91
2017-10-20 23:00:00 18.5 10 Norte 18 Noroeste 0 -- -- 89
2017-10-20 22:00:00 18.9 10 Noroeste 17 Noroeste 0 -- -- 88
2017-10-20 21:00:00 19 4 Noroeste 14 Noroeste 0 -- -- 86
2017-10-20 20:00:00 19.5 7 Noroeste 14 Noroeste 0 -- -- 82
2017-10-20 19:00:00 21.6 8 Noroeste 17 Oeste 0 -- -- 73
2017-10-20 18:00:00 21.8 9 Noroeste 20 Oeste 0 -- -- 71
2017-10-20 17:00:00 22 9 Oeste 17 Noroeste 0 -- -- 73
2017-10-20 16:00:00 20.7 8 Sudoeste 17 Sur 0 -- -- 79
2017-10-20 15:00:00 19.3 12 Sudoeste 18 Sudoeste 0 -- -- 85
2017-10-20 14:00:00 19.5 8 Sur 12 Sur 0 -- -- 82
2017-10-20 13:00:00 19.2 4 Sudoeste 9 Sur 0 -- -- 81
2017-10-20 12:00:00 18.9 3 Oeste 7 Oeste 0 -- -- 83
2017-10-20 11:00:00 17.7 5 Norte 9 Norte 0 -- -- 87
2017-10-20 10:00:00 16.8 3 Norte 6 Norte 0 -- -- 90
2017-10-20 09:00:00 15.9 0 Calma 7 Nordeste 0 -- -- 90
2017-10-20 08:00:00 15.5 6 Nordeste 6 Nordeste 0 -- -- 90
2017-10-20 07:00:00 15.3 6 Norte 9 Norte 0 -- -- 92
2017-10-20 06:00:00 15.1 3 Noroeste 5 Noroeste 0 -- -- 93
2017-10-20 05:00:00 14.9 2 Norte 4 Norte 0 -- -- 93
2017-10-20 04:00:00 14.7 0 Calma 4 Norte 0 -- -- 94
2017-10-20 03:00:00 14.7 3 Noroeste 6 Noroeste 0 -- -- 93
2017-10-20 02:00:00 14.8 7 Noroeste 10 Norte 0 -- -- 92
2017-10-20 01:00:00 15.2 2 Noroeste 8 Noroeste 0 -- -- 89
2017-10-20 00:00:00 15.3 3 Noroeste 9 Oeste 0 -- -- 88
2017-10-19 23:00:00 15.4 4 Sudoeste 10 Noroeste 0 -- -- 87
2017-10-19 22:00:00 16 5 Noroeste 11 Noroeste 0 -- -- 82
2017-10-19 21:00:00 17 8 Noroeste 16 Noroeste 0 -- -- 77
2017-10-19 20:00:00 17.8 12 Noroeste 24 Noroeste 0 -- -- 72
2017-10-19 19:00:00 18.8 12 Noroeste 20 Noroeste 0 -- -- 67
2017-10-19 18:00:00 19.4 12 Noroeste 24 Noroeste 0 -- -- 65
2017-10-19 17:00:00 19.4 13 Noroeste 30 Norte 0 -- -- 63
2017-10-19 16:00:00 18.6 16 Norte 23 Noroeste 0 -- -- 68
2017-10-19 15:00:00 18.6 12 Noroeste 19 Norte 0 -- -- 68
2017-10-19 14:00:00 17.9 8 Norte 16 Oeste 0 -- -- 74
2017-10-19 13:00:00 17.2 7 Noroeste 15 Norte 0 -- -- 78
2017-10-19 12:00:00 16.7 6 Norte 11 Norte 0 -- -- 76
2017-10-19 11:00:00 15 5 Norte 8 Norte 0 -- -- 85
2017-10-19 10:00:00 14.3 0 Calma 3 Norte 0 -- -- 94
2017-10-19 09:00:00 13.6 2 Norte 3 Noroeste 0 -- -- 94
2017-10-19 08:00:00 13.7 2 Norte 9 Norte 0 -- -- 94
2017-10-19 07:00:00 13.6 2 Norte 9 Norte 0 -- -- 94
2017-10-19 06:00:00 13.5 6 Norte 11 Norte 0 -- -- 95
2017-10-19 05:00:00 13.8 3 Norte 8 Noroeste 0 -- -- 95
2017-10-19 04:00:00 13.8 0 Calma 8 Norte 0 -- -- 96
2017-10-19 03:00:00 13.5 6 Este 9 Nordeste 0 -- -- 96
2017-10-19 02:00:00 13.4 2 Norte 17 Norte 0.2 -- -- 95
2017-10-19 01:00:00 14 8 Noroeste 12 Noroeste 0.4 -- -- 94
2017-10-19 00:00:00 14.5 4 Noroeste 9 Noroeste 0.4 -- -- 93
2017-10-18 23:00:00 14.7 5 Norte 15 Oeste 0 -- -- 93
2017-10-18 22:00:00 15.2 10 Sudoeste 22 Sudoeste 1 -- -- 94
2017-10-18 21:00:00 15.6 7 Sudoeste 17 Sudoeste 0 -- -- 93
2017-10-18 20:00:00 16 10 Sudoeste 18 Sudoeste 0 -- -- 89
2017-10-18 19:00:00 16.9 5 Oeste 21 Oeste 0 -- -- 72
2017-10-18 18:00:00 17.7 11 Oeste 27 Oeste 0 -- -- 70
2017-10-18 17:00:00 17.3 8 Noroeste 17 Noroeste 0 -- -- 73
2017-10-18 16:00:00 16.9 7 Oeste 15 Oeste 0.4 -- -- 83
2017-10-18 15:00:00 16.6 8 Sudoeste 16 Sudoeste 0 -- -- 83
2017-10-18 14:00:00 14.7 5 Sudoeste 17 Norte 1.4 -- -- 91
2017-10-18 13:00:00 15.1 5 Oeste 13 Sudoeste 0 -- -- 86
2017-10-18 12:00:00 14.7 5 Oeste 17 Noroeste 0.6 -- -- 93
2017-10-18 11:00:00 14.4 8 Noroeste 15 Noroeste 0 -- -- 95
2017-10-18 10:00:00 13.9 7 Oeste 16 Oeste 0.2 -- -- 96
2017-10-18 09:00:00 13.8 9 Oeste 18 Sudoeste 0 -- -- 96
2017-10-18 08:00:00 13.3 10 Sudoeste 15 Sudoeste 0 -- -- 95
2017-10-18 07:00:00 13.5 4 Sudoeste 12 Oeste 1.2 -- -- 94
2017-10-18 06:00:00 13.7 10 Oeste 18 Sudoeste 0.8 -- -- 90
2017-10-18 05:00:00 14.1 3 Oeste 6 Oeste 0 -- -- 92
2017-10-18 04:00:00 14.5 2 Oeste 8 Sudoeste 0.2 -- -- 93
2017-10-18 03:00:00 15.1 5 Sur 10 Sur 0 -- -- 93
2017-10-18 02:00:00 15.6 7 Sur 10 Sur 0.8 -- -- 91
2017-10-18 01:00:00 15.7 2 Sudoeste 12 Sudoeste 0 -- -- 89
2017-10-18 00:00:00 15.9 10 Sur 17 Sur 0 -- -- 91
2017-10-17 23:00:00 16 9 Sur 22 Sur 0 -- -- 90
2017-10-17 22:00:00 16.4 7 Sudoeste 21 Sur 0 -- -- 87
2017-10-17 21:00:00 17 12 Sur 22 Sudoeste 0 -- -- 82
2017-10-17 20:00:00 18 9 Sudoeste 24 Sur 0 -- -- 77
2017-10-17 19:00:00 20 12 Sur 28 Sur 0 -- -- 69
2017-10-17 18:00:00 20.9 17 Sur 26 Sur 0 -- -- 70
2017-10-17 17:00:00 21.1 11 Sudoeste 23 Sur 0 -- -- 69
2017-10-17 16:00:00 20.5 7 Sudoeste 19 Sudoeste 0 -- -- 72
2017-10-17 15:00:00 20.3 6 Oeste 13 Oeste 0 -- -- 77
2017-10-17 14:00:00 18.1 3 Noroeste 9 Sudoeste 0.2 -- -- 90
2017-10-17 13:00:00 16.9 4 Sudeste 21 Sur 3.4 -- -- 95
2017-10-17 12:00:00 15.9 10 Sur 42 Oeste 36.2 -- -- 94
2017-10-17 11:00:00 17.4 3 Sur 21 Sur 5.4 -- -- 93
2017-10-17 10:00:00 18.1 11 Sur 33 Sur 0.2 -- -- 90
2017-10-17 09:00:00 18.1 15 Sur 27 Sur 0 -- -- 88
2017-10-17 08:00:00 18.1 15 Sur 24 Sur 0 -- -- 88
2017-10-17 07:00:00 17.8 13 Sur 20 Sur 0 -- -- 84
2017-10-17 06:00:00 17.8 9 Sur 13 Sur 0 -- -- 74
2017-10-17 05:00:00 18.2 5 Sur 12 Sudeste 0 -- -- 69
2017-10-17 04:00:00 18.6 4 Sur 15 Sudeste 0 -- -- 67
2017-10-17 03:00:00 19.2 8 Sur 21 Sur 0 -- -- 64
2017-10-17 02:00:00 19.5 9 Sur 20 Sudeste 0 -- -- 62
2017-10-17 01:00:00 19.9 8 Sur 26 Sur 0 -- -- 61
2017-10-17 00:00:00 20.4 9 Sur 18 Sur 0 -- -- 60
2017-10-16 23:00:00 20.9 9 Sur 18 Sur 0 -- -- 59
2017-10-16 22:00:00 21.3 5 Sudeste 12 Sur 0 -- -- 64
2017-10-16 21:00:00 21.3 6 Sur 15 Sur 0 -- -- 62
2017-10-16 20:00:00 21.8 8 Sur 19 Sur 0 -- -- 59
2017-10-16 19:00:00 22.8 11 Sur 23 Sur 0 -- -- 55
2017-10-16 18:00:00 23.2 14 Sur 29 Sudoeste 0 -- -- 52
2017-10-16 17:00:00 25.4 14 Sudoeste 30 Sudoeste 0 -- -- 47
2017-10-16 16:00:00 26.3 15 Sur 35 Sur 0 -- -- 42
2017-10-16 15:00:00 26.2 16 Sur 31 Sur 0 -- -- 38
2017-10-16 14:00:00 26.2 20 Sur 31 Sur 0 -- -- 36
2017-10-16 13:00:00 25.5 14 Sur 26 Sur 0 -- -- 35
2017-10-16 12:00:00 23.6 9 Sudeste 20 Sudeste 0 -- -- 40
2017-10-16 11:00:00 21.9 7 Sudeste 20 Este 0 -- -- 48
2017-10-16 10:00:00 19.1 6 Este 15 Este 0 -- -- 59
2017-10-16 09:00:00 16.6 5 Este 19 Nordeste 0 -- -- 65
2017-10-16 08:00:00 16.7 6 Nordeste 22 Este 0 -- -- 54
2017-10-16 07:00:00 18.3 12 Este 23 Este 0 -- -- 47
2017-10-16 06:00:00 18.6 12 Este 21 Este 0 -- -- 39
2017-10-16 05:00:00 19.1 11 Este 18 Este 0 -- -- 36
2017-10-16 04:00:00 19.6 6 Este 15 Sudeste 0 -- -- 36
2017-10-16 03:00:00 20.1 4 Sudeste 14 Este 0 -- -- 37
2017-10-16 02:00:00 21.2 9 Este 20 Sudeste 0 -- -- 39
2017-10-16 01:00:00 21.7 7 Este 13 Este 0 -- -- 42
2017-10-16 00:00:00 21.9 6 Este 13 Sudeste 0 -- -- 40
2017-10-15 23:00:00 22.9 7 Sudeste 16 Sur 0 -- -- 37
2017-10-15 22:00:00 24.1 6 Sudeste 17 Sudeste 0 -- -- 33
2017-10-15 21:00:00 25.1 5 Sudeste 16 Sudeste 0 -- -- 31
2017-10-15 20:00:00 27.3 8 Sudeste 19 Sudeste 0 -- -- 27
2017-10-15 19:00:00 30 9 Sur 33 Sur 0 -- -- 23
2017-10-15 18:00:00 31.1 17 Sur 31 Sur 0 -- -- 22
2017-10-15 17:00:00 31.8 15 Sur 37 Sur 0 -- -- 21
2017-10-15 16:00:00 31.8 15 Sur 33 Sudeste 0 -- -- 21
2017-10-15 15:00:00 31.7 14 Sur 35 Sur 0 -- -- 21
2017-10-15 14:00:00 31 17 Sur 34 Sur 0 -- -- 21
2017-10-15 13:00:00 30 15 Sur 31 Sur 0 -- -- 22
2017-10-15 12:00:00 27.8 8 Sudeste 22 Este 0 -- -- 27
2017-10-15 11:00:00 24.5 7 Este 21 Sudeste 0 -- -- 32
2017-10-15 10:00:00 22.4 7 Sudeste 20 Este 0 -- -- 35
2017-10-15 09:00:00 21.6 12 Este 21 Este 0 -- -- 37
2017-10-15 08:00:00 22.3 14 Este 21 Este 0 -- -- 35
2017-10-15 07:00:00 23 8 Este 17 Este 0 -- -- 34
2017-10-15 06:00:00 22.7 7 Este 15 Este 0 -- -- 35
2017-10-15 05:00:00 22.5 9 Sur 14 Sur 0 -- -- 37
2017-10-15 04:00:00 25.2 5 Este 13 Este 0 -- -- 30
2017-10-15 03:00:00 26 8 Este 14 Este 0 -- -- 29
2017-10-15 02:00:00 25.3 10 Este 13 Este 0 -- -- 32
2017-10-15 01:00:00 23.7 4 Nordeste 7 Este 0 -- -- 35
2017-10-15 00:00:00 23.2 3 Nordeste 6 Sur 0 -- -- 36
2017-10-14 23:00:00 23.5 4 Este 9 Nordeste 0 -- -- 35
2017-10-14 22:00:00 24.3 4 Norte 5 Norte 0 -- -- 34
2017-10-14 21:00:00 25.2 3 Oeste 8 Noroeste 0 -- -- 33
2017-10-14 20:00:00 26.7 2 Norte 13 Sudoeste 0 -- -- 32
2017-10-14 19:00:00 29.2 6 Sur 15 Sur 0 -- -- 26
2017-10-14 18:00:00 30.3 12 Sur 21 Sudoeste 0 -- -- 24
2017-10-14 17:00:00 31.9 11 Sur 19 Sur 0 -- -- 22
2017-10-14 16:00:00 32.4 7 Sudeste 22 Sur 0 -- -- 22
2017-10-14 15:00:00 32.3 7 Sur 18 Sur 0 -- -- 21
2017-10-14 14:00:00 30.8 7 Sur 14 Sudeste 0 -- -- 24
2017-10-14 13:00:00 28.2 7 Este 11 Este 0 -- -- 30
2017-10-14 12:00:00 27.5 7 Sur 14 Nordeste 0 -- -- 32
2017-10-14 11:00:00 24 5 Sudeste 16 Este 0 -- -- 43
2017-10-14 10:00:00 22.1 5 Sudeste 11 Este 0 -- -- 47
2017-10-14 09:00:00 21.7 4 Sudeste 11 Este 0 -- -- 43
2017-10-14 08:00:00 21.6 8 Este 11 Este 0 -- -- 43
2017-10-14 07:00:00 20.7 4 Norte 10 Sudeste 0 -- -- 47
2017-10-14 06:00:00 21.2 4 Sudeste 9 Sudeste 0 -- -- 45
2017-10-14 05:00:00 22.7 3 Sur 14 Este 0 -- -- 41
2017-10-14 04:00:00 23.9 10 Este 17 Este 0 -- -- 40
2017-10-14 03:00:00 23.1 9 Nordeste 12 Este 0 -- -- 38
2017-10-14 02:00:00 23.9 9 Este 11 Este 0 -- -- 36
2017-10-14 01:00:00 23.1 7 Este 8 Este 0 -- -- 37
2017-10-14 00:00:00 23.2 3 Norte 6 Norte 0 -- -- 37
2017-10-13 23:00:00 22.4 3 Norte 5 Noroeste 0 -- -- 38
2017-10-13 22:00:00 23.2 3 Norte 10 Sudoeste 0 -- -- 35
2017-10-13 21:00:00 23.8 5 Sudoeste 10 Sudoeste 0 -- -- 34
2017-10-13 20:00:00 25.6 9 Sur 18 Sudoeste 0 -- -- 33
2017-10-13 19:00:00 29 11 Sudoeste 22 Sudoeste 0 -- -- 29
2017-10-13 18:00:00 31.4 10 Sudoeste 21 Sur 0 -- -- 26
2017-10-13 17:00:00 31.8 9 Oeste 21 Sur 0 -- -- 26
2017-10-13 16:00:00 31.7 15 Sudoeste 24 Sur 0 -- -- 25
2017-10-13 15:00:00 31.2 12 Sudoeste 19 Sudoeste 0 -- -- 26
2017-10-13 14:00:00 29.5 9 Sudoeste 17 Sur 0 -- -- 30
2017-10-13 13:00:00 27.5 13 Sudoeste 21 Sudoeste 0 -- -- 32
2017-10-13 12:00:00 26.6 10 Sur 18 Sudoeste 0 -- -- 34
2017-10-13 11:00:00 24.1 0 Calma 4 Nordeste 0 -- -- 43
2017-10-13 10:00:00 21.1 2 Nordeste 3 Norte 0 -- -- 49
2017-10-13 09:00:00 18.7 0 Calma 5 Sur 0 -- -- 53
2017-10-13 08:00:00 18.6 3 Sur 7 Sur 0 -- -- 55
2017-10-13 07:00:00 18.5 4 Sur 8 Sur 0 -- -- 54
2017-10-13 06:00:00 19.3 0 Calma 9 Sur 0 -- -- 53
2017-10-13 05:00:00 19.9 3 Sur 5 Sur 0 -- -- 53
2017-10-13 04:00:00 19.8 0 Calma 3 Sudoeste 0 -- -- 54
2017-10-13 03:00:00 20.4 2 Sur 4 Norte 0 -- -- 53
2017-10-13 02:00:00 20.8 3 Norte 7 Noroeste 0 -- -- 55
2017-10-13 01:00:00 20.9 4 Norte 9 Norte 0 -- -- 54
2017-10-13 00:00:00 21.7 4 Norte 7 Norte 0 -- -- 51
2017-10-12 23:00:00 22.1 0 Calma 8 Noroeste 0 -- -- 50
2017-10-12 22:00:00 22.6 3 Oeste 9 Oeste 0 -- -- 49
2017-10-12 21:00:00 23 3 Sudoeste 8 Sur 0 -- -- 46
2017-10-12 20:00:00 25.5 8 Sur 22 Sudoeste 0 -- -- 40
2017-10-12 19:00:00 28.5 12 Sudoeste 26 Sudoeste 0 -- -- 34
2017-10-12 18:00:00 30.1 15 Sudoeste 34 Sudoeste 0 -- -- 32
2017-10-12 17:00:00 31.3 18 Sur 32 Sur 0 -- -- 28
2017-10-12 16:00:00 30.3 18 Sur 34 Sur 0 -- -- 31
2017-10-12 15:00:00 29.8 16 Sur 31 Sur 0 -- -- 30
2017-10-12 14:00:00 28.4 13 Sur 30 Sur 0 -- -- 32
2017-10-12 13:00:00 27.2 11 Sur 23 Sudeste 0 -- -- 36
2017-10-12 12:00:00 25.3 9 Sur 24 Sudeste 0 -- -- 40
2017-10-12 11:00:00 23.9 10 Sur 22 Sudeste 0 -- -- 40
2017-10-12 10:00:00 22.3 7 Sudeste 20 Sudeste 0 -- -- 39
2017-10-12 09:00:00 21.2 10 Este 18 Este 0 -- -- 39
2017-10-12 08:00:00 21.2 10 Este 19 Este 0 -- -- 39
2017-10-12 07:00:00 21.3 6 Sudeste 16 Este 0 -- -- 40
2017-10-12 06:00:00 21.7 6 Este 15 Este 0 -- -- 40
2017-10-12 05:00:00 22 9 Este 12 Este 0 -- -- 42
2017-10-12 04:00:00 21.1 5 Este 11 Este 0 -- -- 45
2017-10-12 03:00:00 20.6 3 Sudeste 11 Este 0 -- -- 45
2017-10-12 02:00:00 23.2 6 Este 14 Este 0 -- -- 39
2017-10-12 01:00:00 23.2 9 Este 17 Este 0 -- -- 39
2017-10-12 00:00:00 23.9 6 Este 14 Este 0 -- -- 36
2017-10-11 23:00:00 24.1 8 Este 13 Este 0 -- -- 35
2017-10-11 22:00:00 22.8 0 Calma 10 Sur 0 -- -- 38
2017-10-11 21:00:00 24.4 6 Sur 12 Sur 0 -- -- 32
2017-10-11 20:00:00 26.5 6 Sur 13 Sur 0 -- -- 28
2017-10-11 19:00:00 29 9 Sur 17 Sur 0 -- -- 24
2017-10-11 18:00:00 30.6 13 Sur 19 Sur 0 -- -- 23
2017-10-11 17:00:00 31.7 5 Oeste 15 Sur 0 -- -- 22
2017-10-11 16:00:00 31.3 6 Sudeste 15 Sudeste 0 -- -- 22
2017-10-11 15:00:00 30.3 5 Norte 15 Sudeste 0 -- -- 23
2017-10-11 14:00:00 29.3 6 Sudeste 17 Este 0 -- -- 26
2017-10-11 13:00:00 27.6 7 Este 20 Este 0 -- -- 32
2017-10-11 12:00:00 26.2 7 Este 15 Este 0 -- -- 33
2017-10-11 11:00:00 23.8 6 Nordeste 14 Este 0 -- -- 38
2017-10-11 10:00:00 21.2 10 Este 18 Este 0 -- -- 41
2017-10-11 09:00:00 20.9 10 Este 13 Este 0 -- -- 41
2017-10-11 08:00:00 20.2 9 Este 12 Este 0 -- -- 42
2017-10-11 07:00:00 20.2 4 Nordeste 6 Nordeste 0 -- -- 44
2017-10-11 06:00:00 20.3 4 Nordeste 6 Nordeste 0 -- -- 42
2017-10-11 05:00:00 20 4 Norte 9 Nordeste 0 -- -- 43
2017-10-11 04:00:00 20.1 6 Nordeste 7 Nordeste 0 -- -- 45
2017-10-11 03:00:00 20.3 3 Norte 5 Norte 0 -- -- 45
2017-10-11 02:00:00 20.3 2 Norte 7 Norte 0 -- -- 45
2017-10-11 01:00:00 20.4 4 Norte 6 Norte 0 -- -- 46
2017-10-11 00:00:00 20.8 4 Norte 6 Noroeste 0 -- -- 46
2017-10-10 23:00:00 21 3 Noroeste 5 Noroeste 0 -- -- 46
2017-10-10 22:00:00 21.1 3 Noroeste 9 Oeste 0 -- -- 46
2017-10-10 21:00:00 22.5 5 Sudoeste 14 Sudoeste 0 -- -- 41
2017-10-10 20:00:00 24.1 6 Sudoeste 19 Sudoeste 0 -- -- 36
2017-10-10 19:00:00 27.4 9 Sudoeste 22 Sur 0 -- -- 32
2017-10-10 18:00:00 29.3 10 Sudoeste 21 Sudoeste 0 -- -- 30
2017-10-10 17:00:00 29.6 6 Sudoeste 20 Sudoeste 0 -- -- 30
2017-10-10 16:00:00 29.6 11 Sudoeste 25 Oeste 0 -- -- 28
2017-10-10 15:00:00 29.6 10 Sur 22 Sur 0 -- -- 28
2017-10-10 14:00:00 28.5 8 Sudeste 17 Este 0 -- -- 29
2017-10-10 13:00:00 26.3 8 Sur 15 Sudoeste 0 -- -- 33
2017-10-10 12:00:00 24.1 9 Sur 13 Sur 0 -- -- 47
2017-10-10 11:00:00 21.9 6 Sur 10 Este 0 -- -- 53
2017-10-10 10:00:00 19.7 5 Sudeste 12 Sur 0 -- -- 65
2017-10-10 09:00:00 18.3 4 Sudeste 14 Este 0 -- -- 48
2017-10-10 08:00:00 18.5 5 Sudeste 12 Sudeste 0 -- -- 47
2017-10-10 07:00:00 20.2 6 Sudeste 9 Sudeste 0 -- -- 42
2017-10-10 06:00:00 22 4 Nordeste 9 Nordeste 0 -- -- 33
2017-10-10 05:00:00 22.5 5 Nordeste 8 Nordeste 0 -- -- 34
2017-10-10 04:00:00 20.7 3 Nordeste 10 Nordeste 0 -- -- 43
2017-10-10 03:00:00 20.6 6 Norte 8 Norte 0 -- -- 44
2017-10-10 02:00:00 20.9 5 Norte 7 Norte 0 -- -- 43
2017-10-10 01:00:00 21 5 Norte 8 Norte 0 -- -- 43
2017-10-10 00:00:00 21.9 4 Noroeste 6 Norte 0 -- -- 40
2017-10-09 23:00:00 21.8 3 Norte 7 Noroeste 0 -- -- 41
2017-10-09 22:00:00 22 5 Norte 10 Sudoeste 0 -- -- 43
2017-10-09 21:00:00 23.7 7 Sudoeste 21 Sudoeste 0 -- -- 37
2017-10-09 20:00:00 25.5 11 Sudoeste 29 Sudoeste 0 -- -- 35
2017-10-09 19:00:00 29 10 Sudoeste 22 Oeste 0 -- -- 31
2017-10-09 18:00:00 30.1 10 Oeste 26 Norte 0 -- -- 25
2017-10-09 17:00:00 30.6 13 Oeste 24 Oeste 0 -- -- 25
2017-10-09 16:00:00 30.7 9 Oeste 23 Sudoeste 0 -- -- 23
2017-10-09 15:00:00 30.6 9 Sur 25 Oeste 0 -- -- 21
2017-10-09 14:00:00 29.8 5 Norte 17 Oeste 0 -- -- 24
2017-10-09 13:00:00 29.5 4 Oeste 13 Oeste 0 -- -- 25
2017-10-09 12:00:00 27.9 6 Oeste 12 Sudoeste 0 -- -- 30
2017-10-09 11:00:00 25.9 6 Sudoeste 10 Sur 0 -- -- 34
2017-10-09 10:00:00 21.8 2 Sudoeste 5 Oeste 0 -- -- 43
2017-10-09 09:00:00 19 3 Noroeste 15 Nordeste 0 -- -- 46
2017-10-09 08:00:00 21.1 12 Nordeste 15 Nordeste 0 -- -- 40
2017-10-09 07:00:00 20.8 8 Nordeste 12 Nordeste 0 -- -- 42
2017-10-09 06:00:00 21.6 9 Nordeste 16 Nordeste 0 -- -- 40
2017-10-09 05:00:00 21.7 13 Nordeste 16 Nordeste 0 -- -- 41
2017-10-09 04:00:00 19.8 6 Norte 8 Norte 0 -- -- 47
2017-10-09 03:00:00 20.8 4 Norte 10 Nordeste 0 -- -- 43
2017-10-09 02:00:00 21.6 6 Nordeste 12 Nordeste 0 -- -- 42
2017-10-09 01:00:00 22.8 12 Nordeste 14 Nordeste 0 -- -- 40
2017-10-09 00:00:00 21.3 5 Norte 7 Norte 0 -- -- 51
2017-10-08 23:00:00 21.5 4 Norte 5 Sur 0 -- -- 54
2017-10-08 22:00:00 22.5 0 Calma 14 Oeste 0 -- -- 51
2017-10-08 21:00:00 24.3 4 Nordeste 25 Sudoeste 0 -- -- 47
2017-10-08 20:00:00 27.5 10 Sudoeste 18 Sur 0 -- -- 39
2017-10-08 19:00:00 29.9 10 Oeste 18 Oeste 0 -- -- 31
2017-10-08 18:00:00 30.6 13 Norte 24 Norte 0 -- -- 29
2017-10-08 17:00:00 30.8 8 Oeste 19 Noroeste 0 -- -- 29
2017-10-08 16:00:00 30.7 7 Sudoeste 20 Oeste 0 -- -- 31
2017-10-08 15:00:00 29.8 5 Oeste 18 Oeste 0 -- -- 32
2017-10-08 14:00:00 28.2 5 Noroeste 13 Oeste 0 -- -- 38
2017-10-08 13:00:00 26.7 3 Sudoeste 10 Norte 0 -- -- 41
2017-10-08 12:00:00 25.1 3 Norte 8 Nordeste 0 -- -- 46
2017-10-08 11:00:00 23 3 Oeste 6 Sur 0 -- -- 59
2017-10-08 10:00:00 20.2 6 Nordeste 10 Nordeste 0 -- -- 70
2017-10-08 09:00:00 18.3 8 Este 9 Nordeste 0 -- -- 74
2017-10-08 08:00:00 18.3 5 Este 6 Este 0 -- -- 75
2017-10-08 07:00:00 17.6 4 Nordeste 6 Nordeste 0 -- -- 80
2017-10-08 06:00:00 17.4 4 Nordeste 5 Nordeste 0 -- -- 85
2017-10-08 05:00:00 17.3 4 Norte 6 Norte 0 -- -- 85
2017-10-08 04:00:00 17.6 3 Norte 4 Norte 0 -- -- 85
2017-10-08 03:00:00 17.6 3 Norte 9 Noroeste 0 -- -- 82
2017-10-08 02:00:00 18 7 Noroeste 10 Noroeste 0 -- -- 78
2017-10-08 01:00:00 18.6 5 Noroeste 7 Norte 0 -- -- 76
2017-10-08 00:00:00 18.8 4 Noroeste 8 Noroeste 0 -- -- 72
2017-10-07 23:00:00 19.8 4 Noroeste 7 Noroeste 0 -- -- 59
2017-10-07 22:00:00 21 4 Noroeste 9 Oeste 0 -- -- 53
2017-10-07 21:00:00 21.8 5 Oeste 14 Sur 0 -- -- 53
2017-10-07 20:00:00 24.7 9 Sur 17 Sudoeste 0 -- -- 42
2017-10-07 19:00:00 27.4 14 Sudoeste 24 Sudoeste 0 -- -- 34
2017-10-07 18:00:00 29.5 17 Sudoeste 28 Sudoeste 0 -- -- 32
2017-10-07 17:00:00 30.5 18 Sur 28 Sur 0 -- -- 32
2017-10-07 16:00:00 31.1 18 Sur 30 Sur 0 -- -- 30
2017-10-07 15:00:00 31 12 Sudoeste 27 Sudoeste 0 -- -- 28
2017-10-07 14:00:00 30.4 9 Sudoeste 25 Sudoeste 0 -- -- 30
2017-10-07 13:00:00 29.4 8 Sur 19 Sur 0 -- -- 30
2017-10-07 12:00:00 27 10 Sur 22 Sur 0 -- -- 35
2017-10-07 11:00:00 25.1 5 Este 15 Este 0 -- -- 40
2017-10-07 10:00:00 22.5 6 Este 14 Sudeste 0 -- -- 43
2017-10-07 09:00:00 20.8 4 Sudeste 11 Sudeste 0 -- -- 43
2017-10-07 08:00:00 22.6 6 Sudeste 10 Sudeste 0 -- -- 36
2017-10-07 07:00:00 22.8 0 Calma 8 Este 0 -- -- 36
2017-10-07 06:00:00 24.1 6 Nordeste 8 Norte 0 -- -- 34
2017-10-07 05:00:00 23.1 8 Nordeste 9 Nordeste 0 -- -- 36
2017-10-07 04:00:00 22.3 4 Nordeste 6 Nordeste 0 -- -- 40
2017-10-07 03:00:00 21.5 0 Calma 6 Norte 0 -- -- 45
2017-10-07 02:00:00 22.1 4 Norte 8 Norte 0 -- -- 46
2017-10-07 01:00:00 22.8 5 Norte 10 Norte 0 -- -- 43
2017-10-07 00:00:00 22.6 6 Norte 11 Norte 0 -- -- 45
2017-10-06 23:00:00 23.5 3 Norte 5 Noroeste 0 -- -- 44
2017-10-06 22:00:00 24 4 Noroeste 6 Noroeste 0 -- -- 42
2017-10-06 21:00:00 25.4 6 Oeste 17 Sudoeste 0 -- -- 40
2017-10-06 20:00:00 27.5 10 Sudoeste 24 Sudoeste 0 -- -- 36
2017-10-06 19:00:00 30.4 15 Sudoeste 28 Sudoeste 0 -- -- 30
2017-10-06 18:00:00 32.4 12 Sudoeste 26 Sudoeste 0 -- -- 26
2017-10-06 17:00:00 33.3 10 Sudoeste 21 Sur 0 -- -- 26
2017-10-06 16:00:00 33 8 Sudeste 19 Sudeste 0 -- -- 24
2017-10-06 15:00:00 32.3 5 Nordeste 21 Nordeste 0 -- -- 24
2017-10-06 14:00:00 31.2 7 Este 16 Sudeste 0 -- -- 28
2017-10-06 13:00:00 29.6 5 Nordeste 10 Nordeste 0 -- -- 32
2017-10-06 12:00:00 27.6 4 Oeste 12 Sur 0 -- -- 33
2017-10-06 11:00:00 24.9 7 Sur 11 Sudoeste 0 -- -- 43
2017-10-06 10:00:00 22.4 0 Calma 8 Sudeste 0 -- -- 51
2017-10-06 09:00:00 19.2 3 Sudeste 9 Sudeste 0 -- -- 55
2017-10-06 08:00:00 19.6 3 Sudeste 11 Sudeste 0 -- -- 54
2017-10-06 07:00:00 21.3 8 Sudeste 11 Sudeste 0 -- -- 46
2017-10-06 06:00:00 18.7 0 Calma 3 Sur 0 -- -- 58
2017-10-06 05:00:00 19.4 2 Este 9 Sudeste 0 -- -- 59
2017-10-06 04:00:00 20.5 6 Nordeste 10 Norte 0 -- -- 59
2017-10-06 03:00:00 20.1 5 Norte 10 Norte 0 -- -- 60
2017-10-06 02:00:00 19.6 7 Norte 12 Norte 0 -- -- 60
2017-10-06 01:00:00 20.8 3 Noroeste 10 Noroeste 0 -- -- 58
2017-10-06 00:00:00 21.6 3 Norte 6 Noroeste 0 -- -- 53
2017-10-05 23:00:00 22.1 3 Noroeste 17 Sudeste 0 -- -- 51
2017-10-05 22:00:00 23.2 5 Sudeste 12 Sudeste 0 -- -- 44
2017-10-05 21:00:00 25 5 Sudeste 10 Sudeste 0 -- -- 43
2017-10-05 20:00:00 28.3 4 Sur 16 Sur 0 -- -- 38
2017-10-05 19:00:00 30.4 9 Sudeste 17 Este 0 -- -- 34
2017-10-05 18:00:00 31.2 8 Sudeste 21 Este 0 -- -- 33
2017-10-05 17:00:00 31.1 6 Sudeste 22 Sudeste 0 -- -- 33
2017-10-05 16:00:00 30.6 9 Sudeste 23 Nordeste 0 -- -- 35
2017-10-05 15:00:00 30 8 Este 21 Este 0 -- -- 38
2017-10-05 14:00:00 28.8 10 Este 21 Este 0 -- -- 39
2017-10-05 13:00:00 27.5 10 Este 23 Sudeste 0 -- -- 39
2017-10-05 12:00:00 26.3 9 Este 24 Este 0 -- -- 41
2017-10-05 11:00:00 23.8 6 Este 18 Este 0 -- -- 49
2017-10-05 10:00:00 21.2 7 Este 19 Este 0 -- -- 59
2017-10-05 09:00:00 19 9 Este 21 Este 0 -- -- 66
2017-10-05 08:00:00 19.4 12 Este 21 Este 0 -- -- 65
2017-10-05 07:00:00 19 8 Nordeste 10 Nordeste 0 -- -- 68
2017-10-05 06:00:00 20 5 Nordeste 9 Nordeste 0 -- -- 63
2017-10-05 05:00:00 19.4 6 Nordeste 8 Norte 0 -- -- 67
2017-10-05 04:00:00 19.4 5 Norte 8 Nordeste 0 -- -- 69
2017-10-05 03:00:00 19.5 5 Norte 9 Norte 0 -- -- 70
2017-10-05 02:00:00 19.4 6 Norte 8 Norte 0 -- -- 69
2017-10-05 01:00:00 20 5 Norte 9 Noroeste 0 -- -- 66
2017-10-05 00:00:00 20.9 3 Norte 10 Oeste 0 -- -- 65
2017-10-04 23:00:00 21.6 6 Oeste 13 Oeste 0 -- -- 63
2017-10-04 22:00:00 22.4 5 Oeste 12 Oeste 0 -- -- 60
2017-10-04 21:00:00 23.6 6 Sur 22 Sudoeste 0 -- -- 54
2017-10-04 20:00:00 26.6 10 Sudoeste 23 Sudoeste 0 -- -- 48
2017-10-04 19:00:00 30.2 9 Sur 21 Sur 0 -- -- 35
2017-10-04 18:00:00 31.8 8 Sur 16 Sudoeste 0 -- -- 33
2017-10-04 17:00:00 31.5 4 Noroeste 18 Sudeste 0 -- -- 34
2017-10-04 16:00:00 31.2 5 Este 19 Sudoeste 0 -- -- 36
2017-10-04 15:00:00 30.2 10 Sudoeste 41 Sudeste 0 -- -- 37
2017-10-04 14:00:00 29.1 11 Sur 22 Sudoeste 0 -- -- 38
2017-10-04 13:00:00 28 7 Sur 16 Sudoeste 0 -- -- 41
2017-10-04 12:00:00 26.1 4 Sudoeste 12 Sudoeste 0 -- -- 46
2017-10-04 11:00:00 24.1 7 Sur 12 Sudeste 0 -- -- 50
2017-10-04 10:00:00 21.2 3 Nordeste 6 Nordeste 0 -- -- 67
2017-10-04 09:00:00 18.2 4 Norte 5 Norte 0 -- -- 75
2017-10-04 08:00:00 18 3 Norte 7 Noroeste 0 -- -- 76
2017-10-04 07:00:00 17.9 3 Norte 6 Norte 0 -- -- 76
2017-10-04 06:00:00 17.9 4 Norte 8 Norte 0 -- -- 76
2017-10-04 05:00:00 18.4 2 Noroeste 9 Noroeste 0 -- -- 73
2017-10-04 04:00:00 19.2 4 Oeste 9 Noroeste 0 -- -- 69
2017-10-04 03:00:00 19.7 4 Oeste 7 Sudoeste 0 -- -- 67
2017-10-04 02:00:00 19.9 3 Noroeste 8 Norte 0 -- -- 65
2017-10-04 01:00:00 20.5 4 Noroeste 7 Noroeste 0 -- -- 61
2017-10-04 00:00:00 21.4 5 Noroeste 18 Oeste 0 -- -- 58
2017-10-03 23:00:00 22.4 4 Oeste 10 Oeste 0 -- -- 54
2017-10-03 22:00:00 23.7 0 Calma 6 Sur 0 -- -- 51
2017-10-03 21:00:00 25.3 4 Sur 15 Sur 0 -- -- 46
2017-10-03 20:00:00 28.9 11 Sur 17 Sudeste 0 -- -- 37
2017-10-03 19:00:00 31.5 9 Sur 18 Sur 0 -- -- 32
2017-10-03 18:00:00 32.1 8 Sudeste 18 Sur 0 -- -- 31
2017-10-03 17:00:00 31.2 7 Nordeste 21 Nordeste 0 -- -- 34
2017-10-03 16:00:00 30.6 9 Este 21 Nordeste 0 -- -- 34
2017-10-03 15:00:00 29.8 5 Nordeste 19 Este 0 -- -- 37
2017-10-03 14:00:00 28.9 6 Este 19 Nordeste 0 -- -- 39
2017-10-03 13:00:00 27.8 8 Nordeste 21 Sudeste 0 -- -- 42
2017-10-03 12:00:00 26.6 8 Sudeste 23 Este 0 -- -- 44
2017-10-03 11:00:00 24.2 8 Este 19 Este 0 -- -- 52
2017-10-03 10:00:00 22 4 Este 15 Este 0 -- -- 61
2017-10-03 09:00:00 18.6 8 Este 14 Este 0 -- -- 71
2017-10-03 08:00:00 18.4 10 Este 17 Este 0 -- -- 71
2017-10-03 07:00:00 18.5 6 Este 13 Este 0 -- -- 70
2017-10-03 06:00:00 18.7 3 Este 8 Nordeste 0 -- -- 70
2017-10-03 05:00:00 18.8 6 Norte 9 Norte 0 -- -- 73
2017-10-03 04:00:00 18.3 6 Norte 12 Norte 0 -- -- 74
2017-10-03 03:00:00 18.2 7 Norte 10 Norte 0 -- -- 75
2017-10-03 02:00:00 18.7 8 Norte 10 Noroeste 0 -- -- 72
2017-10-03 01:00:00 19.8 4 Noroeste 12 Oeste 0 -- -- 67
2017-10-03 00:00:00 20.7 5 Noroeste 13 Noroeste 0 -- -- 63
2017-10-02 23:00:00 21.8 4 Noroeste 10 Oeste 0 -- -- 58
2017-10-02 22:00:00 23.4 5 Oeste 17 Sudoeste 0 -- -- 52
2017-10-02 21:00:00 25.9 5 Sur 13 Sudoeste 0 -- -- 42
2017-10-02 20:00:00 29.4 5 Sur 12 Sur 0 -- -- 35
2017-10-02 19:00:00 31.3 5 Sudeste 18 Sudeste 0 -- -- 31
2017-10-02 18:00:00 31.9 8 Sur 28 Sur 0 -- -- 30
2017-10-02 17:00:00 32 7 Sur 22 Este 0 -- -- 30
2017-10-02 16:00:00 31.4 6 Sudeste 26 Este 0 -- -- 32
2017-10-02 15:00:00 29.8 11 Nordeste 28 Sudeste 0 -- -- 35
2017-10-02 14:00:00 29.3 12 Este 28 Este 0 -- -- 37
2017-10-02 13:00:00 28.3 14 Este 26 Este 0 -- -- 38
2017-10-02 12:00:00 27.1 10 Este 26 Este 0 -- -- 40
2017-10-02 11:00:00 26.1 9 Este 21 Este 0 -- -- 39
2017-10-02 10:00:00 23.9 6 Sudeste 17 Sudeste 0 -- -- 43
2017-10-02 09:00:00 21.8 9 Nordeste 15 Nordeste 0 -- -- 47
2017-10-02 08:00:00 22.3 7 Este 14 Este 0 -- -- 46
2017-10-02 07:00:00 22.1 5 Este 13 Este 0 -- -- 46
2017-10-02 06:00:00 22.2 8 Nordeste 13 Nordeste 0 -- -- 45
2017-10-02 05:00:00 22.5 6 Este 14 Este 0 -- -- 45
2017-10-02 04:00:00 22.9 8 Este 15 Este 0 -- -- 44
2017-10-02 03:00:00 23.5 8 Este 14 Este 0 -- -- 42
2017-10-02 02:00:00 24.3 6 Este 14 Este 0 -- -- 39
2017-10-02 01:00:00 24.8 8 Nordeste 18 Norte 0 -- -- 39
2017-10-02 00:00:00 25.3 11 Nordeste 18 Norte 0 -- -- 37
2017-10-01 23:00:00 24.7 5 Nordeste 6 Nordeste 0 -- -- 38
2017-10-01 22:00:00 24.9 2 Nordeste 8 Sudoeste 0 -- -- 42
2017-10-01 21:00:00 25.3 0 Calma 11 Sudoeste 0 -- -- 41
2017-10-01 20:00:00 28 4 Sur 21 Sur 0 -- -- 34
2017-10-01 19:00:00 30.6 6 Este 13 Nordeste 0 -- -- 28
2017-10-01 18:00:00 31.5 8 Nordeste 19 Norte 0 -- -- 27
2017-10-01 17:00:00 31.9 3 Nordeste 20 Norte 0 -- -- 25
2017-10-01 16:00:00 31.6 8 Nordeste 18 Sudoeste 0 -- -- 26
2017-10-01 15:00:00 31 6 Norte 17 Nordeste 0 -- -- 27
2017-10-01 14:00:00 30.7 7 Sudeste 18 Sudeste 0 -- -- 28
2017-10-01 13:00:00 29.6 5 Sudeste 19 Sudeste 0 -- -- 29
2017-10-01 12:00:00 27.9 6 Nordeste 15 Este 0 -- -- 33
2017-10-01 11:00:00 26 6 Este 12 Nordeste 0 -- -- 37
2017-10-01 10:00:00 22.4 3 Nordeste 9 Este 0 -- -- 46
2017-10-01 09:00:00 18.9 0 Calma 4 Sudeste 0 -- -- 49
2017-10-01 08:00:00 19.4 2 Sudeste 8 Nordeste 0 -- -- 48
2017-10-01 07:00:00 20.8 7 Nordeste 10 Nordeste 0 -- -- 45
2017-10-01 06:00:00 20.7 8 Nordeste 14 Nordeste 0 -- -- 45
2017-10-01 05:00:00 20.2 8 Norte 10 Norte 0 -- -- 48
2017-10-01 04:00:00 20.8 9 Nordeste 14 Nordeste 0 -- -- 47
2017-10-01 03:00:00 21 9 Norte 19 Norte 0 -- -- 49
2017-10-01 02:00:00 20.2 12 Norte 16 Norte 0 -- -- 49
2017-10-01 01:00:00 20 6 Noroeste 11 Norte 0 -- -- 48
2017-10-01 00:00:00 20.6 8 Norte 17 Norte 0 -- -- 46
2017-09-30 23:00:00 22.2 11 Norte 20 Norte 0 -- -- 48
2017-09-30 22:00:00 23.1 14 Norte 21 Norte 0 -- -- 48
2017-09-30 21:00:00 24.5 16 Noroeste 26 Noroeste 0 -- -- 42
2017-09-30 20:00:00 26.3 15 Noroeste 26 Noroeste 0 -- -- 35
2017-09-30 19:00:00 28.4 12 Oeste 26 Oeste 0 -- -- 33
2017-09-30 18:00:00 29.5 10 Oeste 24 Oeste 0 -- -- 34
2017-09-30 17:00:00 30.2 12 Sudoeste 23 Oeste 0 -- -- 33
2017-09-30 16:00:00 29.8 9 Oeste 21 Sudoeste 0 -- -- 33
2017-09-30 15:00:00 29.1 10 Noroeste 17 Noroeste 0 -- -- 36
2017-09-30 14:00:00 28.8 6 Oeste 18 Sudoeste 0 -- -- 37
2017-09-30 13:00:00 27.1 6 Sudoeste 13 Oeste 0 -- -- 39
2017-09-30 12:00:00 24.8 6 Sur 11 Sur 0 -- -- 46
2017-09-30 11:00:00 22.2 4 Sudoeste 9 Sudoeste 0 -- -- 56
2017-09-30 10:00:00 19.7 5 Sur 9 Sur 0 -- -- 65
2017-09-30 09:00:00 17 4 Sur 8 Sudeste 0 -- -- 75
2017-09-30 08:00:00 16.5 3 Sur 9 Sudeste 0 -- -- 77
2017-09-30 07:00:00 17.5 6 Sudeste 10 Sudeste 0 -- -- 75
2017-09-30 06:00:00 16.9 3 Sur 6 Sur 0 -- -- 66
2017-09-30 05:00:00 19.5 7 Sudeste 11 Sudeste 0 -- -- 55
2017-09-30 04:00:00 20.9 4 Este 20 Norte 0 -- -- 49
2017-09-30 03:00:00 21.5 15 Norte 19 Norte 0 -- -- 48
2017-09-30 02:00:00 20.9 13 Norte 15 Norte 0 -- -- 51
2017-09-30 01:00:00 20.3 11 Norte 13 Norte 0 -- -- 54
2017-09-30 00:00:00 21 4 Norte 14 Oeste 0 -- -- 53
2017-09-29 23:00:00 21.5 3 Noroeste 6 Oeste 0 -- -- 51
2017-09-29 22:00:00 22.5 3 Oeste 6 Sudoeste 0 -- -- 48
2017-09-29 21:00:00 23.5 4 Sur 18 Sudoeste 0 -- -- 46
2017-09-29 20:00:00 26 14 Sudoeste 31 Sur 0 -- -- 41
2017-09-29 19:00:00 29.1 17 Sudoeste 23 Sur 0 -- -- 35
2017-09-29 18:00:00 30.8 9 Sur 15 Sudoeste 0 -- -- 31
2017-09-29 17:00:00 30.7 10 Sur 24 Sudoeste 0 -- -- 31
2017-09-29 16:00:00 30 4 Norte 21 Sudoeste 0 -- -- 33
2017-09-29 15:00:00 29.4 10 Sur 21 Oeste 0 -- -- 34
2017-09-29 14:00:00 28.6 8 Sudoeste 18 Sur 0 -- -- 38
2017-09-29 13:00:00 27.6 9 Sudoeste 17 Sudoeste 0 -- -- 38
2017-09-29 12:00:00 25.8 5 Sudoeste 15 Sur 0 -- -- 43
2017-09-29 11:00:00 23.7 6 Sur 12 Sur 0 -- -- 47
2017-09-29 10:00:00 22.2 0 Calma 6 Norte 0 -- -- 51
2017-09-29 09:00:00 18.6 4 Norte 5 Norte 0 -- -- 60
2017-09-29 08:00:00 18.6 2 Nordeste 5 Nordeste 0 -- -- 58
2017-09-29 07:00:00 18.3 4 Nordeste 6 Nordeste 0 -- -- 61
2017-09-29 06:00:00 18 5 Nordeste 6 Nordeste 0 -- -- 63
2017-09-29 05:00:00 17.4 3 Oeste 6 Sur 0 -- -- 65
2017-09-29 04:00:00 18.1 6 Sur 10 Sur 0 -- -- 63
2017-09-29 03:00:00 18.7 6 Sur 10 Sudoeste 0 -- -- 61
2017-09-29 02:00:00 19 6 Sur 13 Sudoeste 0 -- -- 60
2017-09-29 01:00:00 20.3 9 Sudoeste 19 Oeste 0 -- -- 55
2017-09-29 00:00:00 20.4 7 Sudoeste 15 Sudoeste 0 -- -- 55
2017-09-28 23:00:00 21.9 0 Calma 12 Sudoeste 0 -- -- 52
2017-09-28 22:00:00 22.3 3 Oeste 9 Oeste 0 -- -- 53
2017-09-28 21:00:00 24.3 5 Sur 11 Este 0 -- -- 41
2017-09-28 20:00:00 26.6 4 Sudeste 15 Sudeste 0 -- -- 37
2017-09-28 19:00:00 28.3 5 Sur 22 Sur 0 -- -- 34
2017-09-28 18:00:00 29 8 Sur 19 Sudeste 0 -- -- 34
2017-09-28 17:00:00 28.8 9 Sudeste 24 Sudeste 0 -- -- 34
2017-09-28 16:00:00 27.7 8 Este 25 Este 0 -- -- 38
2017-09-28 15:00:00 28 10 Este 24 Este 0 -- -- 37
2017-09-28 14:00:00 28.1 8 Sudeste 23 Sudeste 0 -- -- 36
2017-09-28 13:00:00 27 7 Este 19 Nordeste 0 -- -- 42
2017-09-28 12:00:00 25.3 9 Este 19 Este 0 -- -- 49
2017-09-28 11:00:00 22.3 9 Este 19 Este 0 -- -- 60
2017-09-28 10:00:00 19.1 9 Este 17 Este 0 -- -- 71
2017-09-28 09:00:00 19.1 8 Este 15 Este 0 -- -- 69
2017-09-28 08:00:00 19.2 7 Este 12 Este 0 -- -- 69
2017-09-28 07:00:00 18.7 6 Nordeste 12 Este 0 -- -- 67
2017-09-28 06:00:00 20 7 Este 10 Este 0 -- -- 60
2017-09-28 05:00:00 20.3 6 Este 7 Este 0 -- -- 58
2017-09-28 04:00:00 20 3 Norte 5 Sudeste 0 -- -- 64
2017-09-28 03:00:00 20.3 3 Sudeste 9 Este 0 -- -- 62
2017-09-28 02:00:00 20.6 5 Nordeste 8 Nordeste 0 -- -- 61
2017-09-28 01:00:00 20.9 2 Sudeste 9 Nordeste 0 -- -- 60
2017-09-28 00:00:00 20.5 3 Norte 10 Norte 0 -- -- 63
2017-09-27 23:00:00 20.7 4 Norte 10 Norte 0 -- -- 65
2017-09-27 22:00:00 20.6 2 Norte 4 Sudeste 0 -- -- 65
2017-09-27 21:00:00 21.4 0 Calma 3 Sur 0 -- -- 61
2017-09-27 20:00:00 22.4 0 Calma 5 Sudeste 0 -- -- 56
2017-09-27 19:00:00 23 2 Sudoeste 9 Sur 0 -- -- 56
2017-09-27 18:00:00 23.1 0 Calma 10 Sudoeste 0 -- -- 55
2017-09-27 17:00:00 23.4 0 Calma 14 Sudoeste 0 -- -- 55
2017-09-27 16:00:00 22.8 4 Sudoeste 12 Sudoeste 0 -- -- 57
2017-09-27 15:00:00 22 5 Sudoeste 14 Sudoeste 0 -- -- 60
2017-09-27 14:00:00 21.8 6 Sur 17 Sur 0 -- -- 56
2017-09-27 13:00:00 21.3 12 Sur 24 Sudoeste 0 -- -- 55
2017-09-27 12:00:00 20.8 13 Sur 22 Sur 0 -- -- 55
2017-09-27 11:00:00 18.5 10 Sur 15 Sur 0 -- -- 70
2017-09-27 10:00:00 18 6 Sudeste 14 Sudeste 0 -- -- 67
2017-09-27 09:00:00 17.6 4 Sudeste 16 Este 0 -- -- 58
2017-09-27 08:00:00 17 7 Sudeste 15 Sudeste 0 -- -- 60
2017-09-27 07:00:00 15.8 4 Sudeste 14 Sudeste 0 -- -- 70
2017-09-27 06:00:00 15.4 4 Sur 12 Este 0 -- -- 71
2017-09-27 05:00:00 14.9 3 Sudeste 9 Sudeste 0 -- -- 70
2017-09-27 04:00:00 15.8 5 Sudeste 12 Sudeste 0 -- -- 67
2017-09-27 03:00:00 16.5 5 Sudeste 10 Sur 0 -- -- 50
2017-09-27 02:00:00 17.5 4 Sudeste 10 Sur 0 -- -- 39
2017-09-27 01:00:00 18.5 2 Oeste 3 Oeste 0 -- -- 36
2017-09-27 00:00:00 18.3 3 Oeste 6 Oeste 0 -- -- 41
2017-09-26 23:00:00 17.5 2 Norte 9 Sur 0 -- -- 49
2017-09-26 22:00:00 19.2 6 Sur 9 Sur 0 -- -- 46
2017-09-26 21:00:00 21.2 5 Sur 16 Sur 0 -- -- 42
2017-09-26 20:00:00 24.4 11 Sur 30 Sudoeste 0 -- -- 35
2017-09-26 19:00:00 27.5 19 Sudoeste 29 Sudoeste 0 -- -- 30
2017-09-26 18:00:00 29.9 9 Sudoeste 24 Sudoeste 0 -- -- 22
2017-09-26 17:00:00 30.1 10 Sudoeste 27 Sudoeste 0 -- -- 23
2017-09-26 16:00:00 30 12 Sur 27 Sur 0 -- -- 21
2017-09-26 15:00:00 29.7 7 Sur 22 Sur 0 -- -- 22
2017-09-26 14:00:00 28.9 4 Sudoeste 20 Sudoeste 0 -- -- 23
2017-09-26 13:00:00 26.8 8 Norte 16 Sudeste 0 -- -- 26
2017-09-26 12:00:00 25.7 5 Sur 15 Sur 0 -- -- 27
2017-09-26 11:00:00 24.3 7 Este 12 Nordeste 0 -- -- 31
2017-09-26 10:00:00 20.7 3 Sudeste 7 Este 0 -- -- 42
2017-09-26 09:00:00 17.3 4 Nordeste 9 Nordeste 0 -- -- 48
2017-09-26 08:00:00 17 9 Nordeste 16 Nordeste 0 -- -- 49
2017-09-26 07:00:00 16.7 12 Nordeste 15 Norte 0 -- -- 47
2017-09-26 06:00:00 14.8 5 Norte 10 Noroeste 0 -- -- 50
2017-09-26 05:00:00 15.3 9 Noroeste 12 Norte 0 -- -- 49
2017-09-26 04:00:00 15.9 7 Norte 13 Norte 0 -- -- 47
2017-09-26 03:00:00 16.9 6 Norte 13 Noroeste 0 -- -- 44
2017-09-26 02:00:00 17.5 5 Norte 15 Norte 0 -- -- 41
2017-09-26 01:00:00 18.9 12 Norte 19 Norte 0 -- -- 36
2017-09-26 00:00:00 20.3 17 Norte 26 Norte 0 -- -- 34
2017-09-25 23:00:00 21.1 15 Norte 21 Norte 0 -- -- 34
2017-09-25 22:00:00 22 14 Norte 21 Noroeste 0 -- -- 32
2017-09-25 21:00:00 24.1 15 Noroeste 23 Noroeste 0 -- -- 28
2017-09-25 20:00:00 26.6 15 Noroeste 27 Norte 0 -- -- 26
2017-09-25 19:00:00 28.7 12 Noroeste 27 Noroeste 0 -- -- 21
2017-09-25 18:00:00 29.6 13 Noroeste 32 Oeste 0 -- -- 23
2017-09-25 17:00:00 30.2 12 Noroeste 26 Oeste 0 -- -- 20
2017-09-25 16:00:00 30 12 Oeste 25 Oeste 0 -- -- 19
2017-09-25 15:00:00 29.4 13 Oeste 24 Oeste 0 -- -- 29
2017-09-25 14:00:00 28.4 6 Noroeste 24 Oeste 0 -- -- 34
2017-09-25 13:00:00 27.2 11 Oeste 19 Oeste 0 -- -- 38
2017-09-25 12:00:00 26.2 5 Oeste 11 Oeste 0 -- -- 41
2017-09-25 11:00:00 24.2 3 Nordeste 7 Noroeste 0 -- -- 38
2017-09-25 10:00:00 21.4 0 Calma 4 Norte 0 -- -- 37
2017-09-25 09:00:00 17.6 0 Calma 5 Norte 0 -- -- 39
2017-09-25 08:00:00 18 5 Norte 7 Norte 0 -- -- 38
2017-09-25 07:00:00 18.3 5 Norte 11 Norte 0 -- -- 37
2017-09-25 06:00:00 18.5 8 Norte 11 Norte 0 -- -- 33
2017-09-25 05:00:00 18.8 6 Norte 10 Norte 0 -- -- 34
2017-09-25 04:00:00 18.8 5 Noroeste 9 Norte 0 -- -- 35
2017-09-25 03:00:00 19.6 6 Nordeste 12 Norte 0 -- -- 34
2017-09-25 02:00:00 20 7 Norte 19 Norte 0 -- -- 34
2017-09-25 01:00:00 20.6 14 Norte 22 Norte 0 -- -- 44
2017-09-25 00:00:00 19.8 15 Norte 20 Norte 0 -- -- 59
2017-09-24 23:00:00 21.3 3 Oeste 9 Oeste 0 -- -- 57
2017-09-24 22:00:00 22.3 3 Oeste 15 Oeste 0 -- -- 54
2017-09-24 21:00:00 23.8 9 Sudoeste 25 Sudoeste 0 -- -- 50
2017-09-24 20:00:00 27.1 14 Sudoeste 23 Sudoeste 0 -- -- 42
2017-09-24 19:00:00 29.7 9 Noroeste 19 Sudoeste 0 -- -- 33
2017-09-24 18:00:00 30.2 10 Sur 19 Sudoeste 0 -- -- 32
2017-09-24 17:00:00 29.9 4 Noroeste 17 Oeste 0 -- -- 33
2017-09-24 16:00:00 29 8 Noroeste 19 Noroeste 0 -- -- 35
2017-09-24 15:00:00 28.5 4 Nordeste 19 Oeste 0 -- -- 39
2017-09-24 14:00:00 27.9 6 Sudoeste 14 Sur 0 -- -- 42
2017-09-24 13:00:00 26.3 5 Noroeste 16 Sur 0 -- -- 45
2017-09-24 12:00:00 24.7 5 Oeste 17 Sur 0 -- -- 48
2017-09-24 11:00:00 22.7 6 Oeste 11 Oeste 0 -- -- 53
2017-09-24 10:00:00 20.3 0 Calma 8 Sudeste 0 -- -- 61
2017-09-24 09:00:00 16.6 6 Sudeste 8 Este 0 -- -- 73
2017-09-24 08:00:00 16.9 3 Sudeste 10 Sudeste 0 -- -- 74
2017-09-24 07:00:00 17.5 6 Sudeste 12 Sudeste 0 -- -- 74
2017-09-24 06:00:00 17.5 5 Sudeste 12 Sudeste 0 -- -- 67
2017-09-24 05:00:00 17.6 0 Calma 8 Nordeste 0 -- -- 63
2017-09-24 04:00:00 18 5 Norte 6 Norte 0 -- -- 65
2017-09-24 03:00:00 17.9 5 Norte 9 Noroeste 0 -- -- 70
2017-09-24 02:00:00 18.3 5 Norte 9 Noroeste 0 -- -- 70
2017-09-24 01:00:00 18.7 3 Noroeste 5 Sudoeste 0 -- -- 68
2017-09-24 00:00:00 20.1 2 Sur 10 Oeste 0 -- -- 63
2017-09-23 23:00:00 20.9 4 Sudoeste 12 Sudoeste 0 -- -- 59
2017-09-23 22:00:00 21.8 0 Calma 18 Sur 0 -- -- 54
2017-09-23 21:00:00 23.6 8 Sudoeste 22 Sudoeste 0 -- -- 49
2017-09-23 20:00:00 26.4 14 Sudoeste 27 Sur 0 -- -- 43
2017-09-23 19:00:00 30.1 4 Sudeste 10 Nordeste 0 -- -- 28
2017-09-23 18:00:00 30.1 6 Este 21 Sur 0 -- -- 29
2017-09-23 17:00:00 29.6 5 Norte 21 Sudeste 0 -- -- 30
2017-09-23 16:00:00 29.5 6 Noroeste 15 Este 0 -- -- 33
2017-09-23 15:00:00 28.5 11 Norte 19 Norte 0 -- -- 34
2017-09-23 14:00:00 27.1 6 Nordeste 17 Norte 0 -- -- 36
2017-09-23 13:00:00 25.8 6 Oeste 12 Sudoeste 0 -- -- 40
2017-09-23 12:00:00 24.6 4 Sur 12 Sudoeste 0 -- -- 43
2017-09-23 11:00:00 22.8 6 Sur 12 Sur 0 -- -- 46
2017-09-23 10:00:00 20.1 0 Calma 4 Sudeste 0 -- -- 58
2017-09-23 09:00:00 17 2 Nordeste 4 Norte 0 -- -- 63
2017-09-23 08:00:00 17 3 Norte 5 Norte 0 -- -- 63
2017-09-23 07:00:00 16.7 0 Calma 3 Norte 0 -- -- 64
2017-09-23 06:00:00 15.8 0 Calma 4 Sur 0 -- -- 67
2017-09-23 05:00:00 16 4 Sudeste 9 Sur 0 -- -- 65
2017-09-23 04:00:00 16.8 9 Sur 12 Sur 0 -- -- 60
2017-09-23 03:00:00 17.8 6 Sur 9 Sudoeste 0 -- -- 57
2017-09-23 02:00:00 19.2 0 Calma 4 Noroeste 0 -- -- 54
2017-09-23 01:00:00 19.6 0 Calma 5 Noroeste 0 -- -- 53
2017-09-23 00:00:00 19.7 4 Noroeste 8 Noroeste 0 -- -- 52